createdAt,value
2024-03-02T09:01:38.344Z,27.10
2024-03-02T09:02:15.767Z,27.10
2024-03-02T09:03:15.741Z,27.11
2024-03-02T09:04:15.758Z,27.10
2024-03-02T09:05:15.760Z,27.10
2024-03-02T09:06:15.826Z,27.14
2024-03-02T09:07:15.775Z,27.11
2024-03-02T09:08:15.774Z,27.12
2024-03-02T09:09:15.760Z,27.05
2024-03-02T09:10:15.764Z,27.05
2024-03-02T09:11:15.779Z,27.05
2024-03-02T09:12:15.754Z,27.04
2024-03-02T09:13:15.757Z,26.97
2024-03-02T09:14:15.783Z,26.99
2024-03-02T09:15:15.769Z,26.99
2024-03-02T09:16:15.864Z,26.96
2024-03-02T09:17:15.812Z,26.99
2024-03-02T09:18:15.803Z,26.94
2024-03-02T09:19:15.816Z,26.93
2024-03-02T09:20:15.793Z,26.90
2024-03-02T09:21:15.854Z,26.90
2024-03-02T09:22:15.870Z,26.89
2024-03-02T09:23:15.899Z,26.89
2024-03-02T09:24:17.731Z,26.89
2024-03-02T09:25:15.938Z,26.85
2024-03-02T09:26:15.948Z,26.83
2024-03-02T09:27:15.970Z,26.83
2024-03-02T09:28:15.929Z,26.85
2024-03-02T09:29:15.953Z,26.82
2024-03-02T09:30:23.274Z,26.80
2024-03-02T09:31:23.267Z,26.88
2024-03-02T09:32:23.242Z,26.85
2024-03-02T09:33:23.326Z,26.81
2024-03-02T09:34:23.278Z,26.76
2024-03-02T09:35:23.259Z,26.75
2024-03-02T09:36:23.355Z,26.79
2024-03-02T09:37:23.268Z,26.74
2024-03-02T09:38:23.294Z,26.79
2024-03-02T09:39:23.344Z,26.74
2024-03-02T09:40:23.264Z,26.75
2024-03-02T09:41:23.286Z,26.71
2024-03-02T09:42:24.750Z,26.77
2024-03-02T09:43:23.267Z,26.77
2024-03-02T09:44:23.277Z,26.75
2024-03-02T09:45:23.329Z,26.75
2024-03-02T09:46:23.270Z,26.75
2024-03-02T09:47:23.285Z,26.71
2024-03-02T09:48:23.313Z,26.77
2024-03-02T09:49:23.265Z,26.72
2024-03-02T09:50:23.317Z,26.69
2024-03-02T09:51:23.314Z,26.72
2024-03-02T09:52:23.270Z,26.75
2024-03-02T09:53:23.298Z,26.71
2024-03-02T09:54:23.754Z,26.73
2024-03-02T09:55:23.315Z,26.68
2024-03-02T09:56:23.308Z,26.74
2024-03-02T09:57:23.297Z,26.71
2024-03-02T09:58:23.305Z,26.71
2024-03-02T09:59:23.315Z,26.67
2024-03-02T10:00:23.306Z,26.74
2024-03-02T10:01:23.403Z,26.70
2024-03-02T10:02:23.389Z,26.70
2024-03-02T10:03:23.300Z,26.68
2024-03-02T10:04:23.304Z,26.70
2024-03-02T10:05:23.295Z,26.70
2024-03-02T10:06:23.355Z,26.68
2024-03-02T10:07:23.293Z,26.73
2024-03-02T10:08:23.299Z,26.71
2024-03-02T10:09:23.318Z,26.67
2024-03-02T10:10:24.238Z,26.66
2024-03-02T10:11:23.361Z,26.71
2024-03-02T10:12:23.354Z,26.67
2024-03-02T10:13:23.305Z,26.68
2024-03-02T10:14:23.314Z,26.68
2024-03-02T10:15:23.345Z,26.67
2024-03-02T10:16:23.305Z,26.68
2024-03-02T10:17:23.319Z,26.66
2024-03-02T10:18:23.336Z,26.68
2024-03-02T10:19:23.309Z,26.70
2024-03-02T10:20:23.321Z,26.67
2024-03-02T10:21:23.354Z,26.64
2024-03-02T10:22:23.326Z,26.63
2024-03-02T10:23:23.353Z,26.63
2024-03-02T10:24:23.324Z,26.66
2024-03-02T10:25:36.585Z,26.70
2024-03-02T10:26:24.344Z,26.71
2024-03-02T10:27:23.390Z,26.68
2024-03-02T10:28:23.387Z,26.61
2024-03-02T10:29:23.354Z,26.63
2024-03-02T10:30:23.360Z,26.67
2024-03-02T10:31:23.352Z,26.67
2024-03-02T10:32:23.363Z,26.67
2024-03-02T10:33:23.395Z,26.64
2024-03-02T10:34:23.356Z,26.60
2024-03-02T10:35:23.473Z,26.63
2024-03-02T10:36:23.372Z,26.62
2024-03-02T10:37:23.368Z,26.61
2024-03-02T10:38:23.369Z,26.60
2024-03-02T10:39:23.381Z,26.57
2024-03-02T10:40:23.371Z,26.59
2024-03-02T10:41:23.401Z,26.57
2024-03-02T10:42:23.373Z,26.56
2024-03-02T10:43:23.371Z,26.53
2024-03-02T10:44:23.388Z,26.56
2024-03-02T10:45:23.382Z,26.53
2024-03-02T10:46:23.382Z,26.53
2024-03-02T10:47:23.390Z,26.56
2024-03-02T10:48:23.387Z,26.54
2024-03-02T10:49:23.346Z,26.52
2024-03-02T10:50:23.353Z,26.55
2024-03-02T10:51:23.394Z,26.52
2024-03-02T10:52:23.368Z,26.50
2024-03-02T10:53:23.389Z,26.52
2024-03-02T10:54:23.391Z,26.47
2024-03-02T10:55:23.599Z,26.48
2024-03-02T10:56:23.382Z,26.48
2024-03-02T10:57:23.370Z,26.48
2024-03-02T10:58:23.442Z,26.47
2024-03-02T10:59:23.372Z,26.50
2024-03-02T11:00:23.383Z,26.47
2024-03-02T11:01:23.496Z,26.51
2024-03-02T11:02:23.363Z,26.47
2024-03-02T11:03:23.392Z,26.49
2024-03-02T11:04:23.456Z,26.46
2024-03-02T11:05:23.359Z,26.44
2024-03-02T11:06:23.360Z,26.46
2024-03-02T11:07:23.408Z,26.42
2024-03-02T11:08:23.402Z,26.43
2024-03-02T11:09:23.413Z,26.43
2024-03-02T11:10:23.416Z,26.46
2024-03-02T11:11:23.450Z,26.43
2024-03-02T11:12:23.462Z,26.43
2024-03-02T11:13:23.435Z,26.43
2024-03-02T11:14:23.412Z,26.39
2024-03-02T11:15:23.537Z,26.39
2024-03-02T11:16:23.490Z,26.39
2024-03-02T11:17:23.521Z,26.45
2024-03-02T11:18:23.632Z,26.39
2024-03-02T11:19:23.633Z,26.39
2024-03-02T11:20:23.588Z,26.39
2024-03-02T11:21:23.658Z,26.39
2024-03-02T11:22:23.671Z,26.38
2024-03-02T11:23:23.701Z,26.34
2024-03-02T11:24:23.841Z,26.32
2024-03-02T11:25:23.919Z,26.32
2024-03-02T11:26:23.856Z,26.31
2024-03-02T11:27:23.938Z,26.34
2024-03-02T11:28:24.006Z,26.25
2024-03-02T11:29:24.056Z,26.31
2024-03-02T11:30:24.218Z,26.29
2024-03-02T11:31:24.186Z,26.24
2024-03-02T11:32:24.239Z,26.23
2024-03-02T11:33:24.406Z,26.21
2024-03-02T11:34:24.398Z,26.23
2024-03-02T11:35:24.495Z,26.17
2024-03-02T11:36:24.563Z,26.21
2024-03-02T11:37:24.586Z,26.16
2024-03-02T11:38:24.698Z,26.21
2024-03-02T11:39:24.750Z,26.17
2024-03-02T11:40:24.814Z,26.19
2024-03-02T11:41:24.861Z,26.16
2024-03-02T11:42:24.906Z,26.20
2024-03-02T11:43:24.976Z,26.07
2024-03-02T11:44:25.038Z,26.12
2024-03-02T11:45:25.139Z,26.09
2024-03-02T11:46:25.140Z,26.08
2024-03-02T11:47:25.238Z,26.12
2024-03-02T11:48:25.285Z,26.11
2024-03-02T11:49:25.322Z,26.15
2024-03-02T11:50:25.457Z,26.12
2024-03-02T11:51:25.435Z,26.12
2024-03-02T11:52:25.455Z,26.09
2024-03-02T11:53:25.518Z,26.08
2024-03-02T11:54:25.572Z,26.08
2024-03-02T11:55:25.578Z,26.07
2024-03-02T11:56:25.620Z,26.16
2024-03-02T11:57:25.770Z,26.10
2024-03-02T11:58:25.728Z,26.16
2024-03-02T11:59:25.752Z,26.14
2024-03-02T12:00:25.886Z,26.13
2024-03-02T12:01:25.968Z,26.13
2024-03-02T12:02:25.885Z,26.12
2024-03-02T12:03:25.936Z,26.12
2024-03-02T12:04:25.928Z,26.09
2024-03-02T12:05:25.931Z,26.09
2024-03-02T12:06:26.016Z,26.12
2024-03-02T12:07:25.987Z,26.07
2024-03-02T12:08:26.018Z,26.07
2024-03-02T12:09:26.089Z,26.05
2024-03-02T12:10:26.141Z,26.05
2024-03-02T12:11:26.070Z,26.03
2024-03-02T12:12:26.106Z,26.07
2024-03-02T12:13:26.079Z,26.04
2024-03-02T12:14:26.129Z,26.06
2024-03-02T12:15:26.111Z,26.01
2024-03-02T12:16:26.130Z,25.98
2024-03-02T12:17:26.135Z,26.03
2024-03-02T12:18:26.196Z,26.00
2024-03-02T12:19:26.116Z,26.03
2024-03-02T12:20:26.149Z,25.96
2024-03-02T12:21:26.186Z,26.02
2024-03-02T12:22:26.201Z,26.02
2024-03-02T12:23:26.254Z,25.95
2024-03-02T12:24:26.268Z,25.92
2024-03-02T12:25:26.320Z,25.98
2024-03-02T12:26:26.350Z,25.91
2024-03-02T12:27:26.401Z,25.89
2024-03-02T12:28:26.455Z,25.95
2024-03-02T12:29:26.489Z,25.92
2024-03-02T12:30:26.582Z,25.88
2024-03-02T12:31:26.621Z,25.90
2024-03-02T12:32:26.691Z,25.86
2024-03-02T12:33:26.779Z,25.87
2024-03-02T12:34:26.956Z,25.85
2024-03-02T12:35:26.929Z,25.86
2024-03-02T12:36:27.039Z,25.83
2024-03-02T12:37:27.024Z,25.85
2024-03-02T12:38:27.082Z,25.85
2024-03-02T12:39:27.204Z,25.80
2024-03-02T12:40:27.180Z,25.79
2024-03-02T12:41:29.452Z,25.78
2024-03-02T12:42:27.297Z,25.80
2024-03-02T12:43:27.353Z,25.81
2024-03-02T12:44:27.443Z,25.77
2024-03-02T12:45:27.530Z,25.78
2024-03-02T12:46:27.509Z,25.77
2024-03-02T12:47:27.576Z,25.83
2024-03-02T12:48:27.648Z,25.74
2024-03-02T12:49:27.629Z,25.74
2024-03-02T12:50:27.751Z,25.72
2024-03-02T12:51:27.751Z,25.72
2024-03-02T12:52:27.777Z,25.73
2024-03-02T12:53:27.797Z,25.72
2024-03-02T12:54:27.848Z,25.71
2024-03-02T12:55:27.868Z,25.72
2024-03-02T12:56:27.914Z,25.72
2024-03-02T12:57:27.935Z,25.74
2024-03-02T12:58:28.004Z,25.74
2024-03-02T12:59:28.152Z,25.68
2024-03-02T13:00:28.080Z,25.73
2024-03-02T13:01:28.135Z,25.67
2024-03-02T13:02:28.033Z,25.69
2024-03-02T13:03:28.052Z,25.64
2024-03-02T13:04:28.078Z,25.67
2024-03-02T13:05:28.084Z,25.63
2024-03-02T13:06:28.140Z,25.64
2024-03-02T13:07:28.118Z,25.65
2024-03-02T13:08:28.115Z,25.65
2024-03-02T13:09:28.124Z,25.66
2024-03-02T13:10:28.229Z,25.64
2024-03-02T13:11:28.179Z,25.65
2024-03-02T13:12:28.166Z,25.65
2024-03-02T13:13:28.139Z,25.64
2024-03-02T13:14:28.153Z,25.65
2024-03-02T13:15:28.282Z,25.61
2024-03-02T13:16:32.821Z,25.64
2024-03-02T13:17:32.644Z,25.64
2024-03-02T13:18:29.293Z,25.64
2024-03-02T13:19:28.242Z,25.64
2024-03-02T13:20:28.274Z,25.61
2024-03-02T13:21:28.281Z,25.63
2024-03-02T13:22:28.204Z,25.61
2024-03-02T13:23:28.232Z,25.61
2024-03-02T13:24:28.221Z,25.60
2024-03-02T13:25:30.112Z,25.65
2024-03-02T13:26:28.243Z,25.63
2024-03-02T13:27:28.300Z,25.58
2024-03-02T13:28:28.303Z,25.62
2024-03-02T13:29:28.337Z,25.60
2024-03-02T13:30:28.444Z,25.58
2024-03-02T13:31:28.422Z,25.61
2024-03-02T13:32:28.530Z,25.58
2024-03-02T13:33:28.572Z,25.56
2024-03-02T13:34:28.575Z,25.60
2024-03-02T13:35:28.637Z,25.60
2024-03-02T13:36:28.718Z,25.65
2024-03-02T13:37:28.759Z,25.57
2024-03-02T13:38:28.823Z,25.57
2024-03-02T13:39:28.917Z,25.56
2024-03-02T13:40:28.985Z,25.56
2024-03-02T13:41:29.022Z,25.58
2024-03-02T13:43:29.171Z,25.56
2024-03-02T13:44:29.250Z,25.61
2024-03-02T13:45:29.318Z,25.59
2024-03-02T13:46:29.402Z,25.57
2024-03-02T13:47:29.440Z,25.54
2024-03-02T13:48:29.555Z,25.57
2024-03-02T13:49:29.577Z,25.63
2024-03-02T13:50:29.713Z,25.59
2024-03-02T13:51:29.767Z,25.53
2024-03-02T13:52:29.786Z,25.59
2024-03-02T13:53:29.884Z,25.59
2024-03-02T13:54:29.952Z,25.57
2024-03-02T13:55:30.022Z,25.62
2024-03-02T13:56:30.061Z,25.54
2024-03-02T13:57:30.163Z,25.56
2024-03-02T13:58:30.230Z,25.63
2024-03-02T13:59:30.291Z,25.63
2024-03-02T14:00:30.360Z,25.63
